createdAt,value
2022-10-13T00:00:48.487Z,12.24
2022-10-13T00:03:15.608Z,12.26
2022-10-13T00:05:48.152Z,12.22
2022-10-13T00:08:18.923Z,12.24
2022-10-13T00:10:46.854Z,12.23
2022-10-13T00:13:13.573Z,12.20
2022-10-13T00:15:42.339Z,12.17
2022-10-13T00:18:09.184Z,12.19
2022-10-13T00:20:35.880Z,12.19
2022-10-13T00:23:02.515Z,12.17
2022-10-13T00:25:29.116Z,12.20
2022-10-13T00:27:55.770Z,12.21
2022-10-13T00:30:23.202Z,12.20
2022-10-13T00:32:50.302Z,12.24
2022-10-13T00:35:16.936Z,12.23
2022-10-13T00:37:43.521Z,12.23
2022-10-13T00:40:10.589Z,12.24
2022-10-13T00:42:37.221Z,12.25
2022-10-13T00:45:24.814Z,12.27
2022-10-13T00:48:02.000Z,12.28
2022-10-13T00:50:42.242Z,12.23
2022-10-13T00:53:10.632Z,12.21
2022-10-13T00:55:39.759Z,12.25
2022-10-13T00:58:10.404Z,12.23
2022-10-13T01:00:37.045Z,12.20
2022-10-13T01:03:04.226Z,12.18
2022-10-13T01:05:31.245Z,12.16
2022-10-13T01:07:59.388Z,12.12
2022-10-13T01:10:35.164Z,12.04
2022-10-13T01:13:13.808Z,11.98
2022-10-13T01:15:57.248Z,11.95
2022-10-13T01:18:40.960Z,11.89
2022-10-13T01:21:16.603Z,11.89
2022-10-13T01:23:49.083Z,11.85
2022-10-13T01:26:21.574Z,11.84
2022-10-13T01:29:37.552Z,11.74
2022-10-13T01:32:10.797Z,11.72
2022-10-13T01:34:50.069Z,11.69
2022-10-13T01:37:34.767Z,11.65
2022-10-13T01:40:25.657Z,11.59
2022-10-13T01:43:04.317Z,11.56
2022-10-13T01:45:37.528Z,11.51
2022-10-13T01:48:06.137Z,11.50
2022-10-13T01:50:40.831Z,11.47
2022-10-13T01:53:08.544Z,11.47
2022-10-13T01:55:35.143Z,11.44
2022-10-13T01:58:01.696Z,11.40
2022-10-13T02:00:40.236Z,11.39
2022-10-13T02:03:21.306Z,11.37
2022-10-13T02:06:01.708Z,11.32
2022-10-13T02:08:48.885Z,11.30
2022-10-13T02:11:21.490Z,11.29
2022-10-13T02:13:57.601Z,11.31
2022-10-13T02:16:28.947Z,11.29
2022-10-13T02:18:57.122Z,11.29
2022-10-13T02:21:24.430Z,11.32
2022-10-13T02:23:51.636Z,11.31
2022-10-13T02:26:20.124Z,11.30
2022-10-13T02:28:51.294Z,11.28
2022-10-13T02:31:18.013Z,11.30
2022-10-13T02:33:44.534Z,11.28
2022-10-13T02:36:11.104Z,11.24
2022-10-13T02:38:37.582Z,11.20
2022-10-13T02:41:04.156Z,11.17
2022-10-13T02:43:30.877Z,11.17
2022-10-13T02:45:57.476Z,11.16
2022-10-13T02:48:24.040Z,11.15
2022-10-13T02:50:50.749Z,11.14
2022-10-13T02:53:17.751Z,11.14
2022-10-13T02:55:44.490Z,11.16
2022-10-13T02:58:11.071Z,11.15
2022-10-13T03:00:39.622Z,11.14
2022-10-13T03:03:06.745Z,11.11
2022-10-13T03:05:33.493Z,11.08
2022-10-13T03:08:00.012Z,11.08
2022-10-13T03:10:26.985Z,11.08
2022-10-13T03:12:55.765Z,11.03
2022-10-13T03:15:22.576Z,11.03
2022-10-13T03:17:49.488Z,11.07
2022-10-13T03:20:16.502Z,11.09
2022-10-13T03:22:46.056Z,11.09
2022-10-13T03:25:16.190Z,11.10
2022-10-13T03:27:43.319Z,11.11
2022-10-13T03:30:10.588Z,11.15
2022-10-13T03:32:38.923Z,11.13
2022-10-13T03:35:06.358Z,11.08
2022-10-13T03:37:32.961Z,11.07
2022-10-13T03:39:59.975Z,11.05
2022-10-13T03:42:26.511Z,11.02
2022-10-13T03:44:56.289Z,11.05
2022-10-13T03:47:23.758Z,11.04
2022-10-13T03:49:50.330Z,11.00
2022-10-13T03:52:17.132Z,11.01
2022-10-13T03:54:43.954Z,10.97
2022-10-13T03:57:10.505Z,10.92
2022-10-13T03:59:37.243Z,10.84
2022-10-13T04:02:04.494Z,10.86
2022-10-13T04:04:31.086Z,10.88
2022-10-13T04:06:57.735Z,10.82
2022-10-13T04:09:24.400Z,10.79
2022-10-13T04:11:52.318Z,10.77
2022-10-13T04:14:20.121Z,10.76
2022-10-13T04:16:46.822Z,10.78
2022-10-13T04:19:15.178Z,10.77
2022-10-13T04:21:42.799Z,10.78
2022-10-13T04:24:17.631Z,10.78
2022-10-13T04:26:45.158Z,10.79
2022-10-13T04:29:12.225Z,10.83
2022-10-13T04:31:40.669Z,10.84
2022-10-13T04:34:07.803Z,10.89
2022-10-13T04:36:34.442Z,10.92
2022-10-13T04:39:01.015Z,10.92
2022-10-13T04:41:27.874Z,10.92
2022-10-13T04:43:55.065Z,11.00
2022-10-13T04:46:24.467Z,10.99
2022-10-13T04:48:51.705Z,10.97
2022-10-13T04:51:24.050Z,11.00
2022-10-13T04:54:01.453Z,10.98
2022-10-13T04:56:28.753Z,11.02
2022-10-13T04:58:59.832Z,11.01
2022-10-13T05:01:26.681Z,11.01
2022-10-13T05:04:01.419Z,10.99
2022-10-13T05:06:33.136Z,11.03
2022-10-13T05:09:00.205Z,11.06
2022-10-13T05:11:29.878Z,11.07
2022-10-13T05:13:57.407Z,11.03
2022-10-13T05:16:24.975Z,11.05
2022-10-13T05:18:53.969Z,11.07
2022-10-13T05:21:30.455Z,11.10
2022-10-13T05:23:58.742Z,11.13
2022-10-13T05:26:29.060Z,11.11
2022-10-13T05:28:57.238Z,11.15
2022-10-13T05:31:26.862Z,11.15
2022-10-13T05:33:54.087Z,11.12
2022-10-13T05:36:33.516Z,11.14
2022-10-13T05:39:05.708Z,11.16
2022-10-13T05:41:32.675Z,11.16
2022-10-13T05:44:02.801Z,11.18
2022-10-13T05:46:29.481Z,11.22
2022-10-13T05:48:56.116Z,11.22
2022-10-13T05:51:26.980Z,11.25
2022-10-13T05:54:01.249Z,11.29
2022-10-13T05:56:36.743Z,11.32
2022-10-13T05:59:06.687Z,11.35
2022-10-13T06:01:38.143Z,11.37
2022-10-13T06:04:08.639Z,11.40
2022-10-13T06:06:35.569Z,11.45
2022-10-13T06:09:02.209Z,11.43
2022-10-13T06:11:28.873Z,11.46
2022-10-13T06:13:55.501Z,11.55
2022-10-13T06:16:22.118Z,11.59
2022-10-13T06:18:48.747Z,11.59
2022-10-13T06:21:15.282Z,11.59
2022-10-13T06:23:41.873Z,11.63
2022-10-13T06:26:11.281Z,11.66
2022-10-13T06:28:38.170Z,11.66
2022-10-13T06:31:06.517Z,11.67
2022-10-13T06:33:34.174Z,11.70
2022-10-13T06:36:05.054Z,11.67
2022-10-13T06:38:32.591Z,11.66
2022-10-13T06:41:01.052Z,11.67
2022-10-13T06:43:37.251Z,11.67
2022-10-13T06:46:09.742Z,11.65
2022-10-13T06:48:36.321Z,11.70
2022-10-13T06:51:05.547Z,11.70
2022-10-13T06:53:32.494Z,11.72
2022-10-13T06:56:00.616Z,11.74
2022-10-13T06:58:28.313Z,11.81
2022-10-13T07:00:55.699Z,11.87
2022-10-13T07:03:23.923Z,11.91
2022-10-13T07:05:50.502Z,11.95
2022-10-13T07:08:17.153Z,11.99
2022-10-13T07:10:43.737Z,12.03
2022-10-13T07:13:10.270Z,12.02
2022-10-13T07:15:40.573Z,12.07
2022-10-13T07:18:07.438Z,12.17
2022-10-13T07:20:34.334Z,12.28
2022-10-13T07:23:00.954Z,12.39
2022-10-13T07:25:28.099Z,12.49
2022-10-13T07:27:54.821Z,12.53
2022-10-13T07:30:21.492Z,12.56
2022-10-13T07:32:48.874Z,12.55
2022-10-13T07:35:15.602Z,12.60
2022-10-13T07:37:42.150Z,12.67
2022-10-13T07:40:09.340Z,12.69
2022-10-13T07:42:36.065Z,12.73
2022-10-13T07:45:02.812Z,12.75
2022-10-13T07:47:30.433Z,12.84
2022-10-13T07:49:57.039Z,12.93
2022-10-13T07:52:23.595Z,12.95
2022-10-13T07:54:51.287Z,12.93
2022-10-13T07:57:18.344Z,12.97
2022-10-13T07:59:45.172Z,13.00
2022-10-13T08:02:13.198Z,13.07
2022-10-13T08:04:39.828Z,13.10
2022-10-13T08:07:06.906Z,13.17
2022-10-13T08:09:33.747Z,13.24
2022-10-13T08:12:01.778Z,13.30
2022-10-13T08:14:29.586Z,13.38
2022-10-13T08:16:57.079Z,13.38
2022-10-13T08:19:26.298Z,13.42
2022-10-13T08:21:58.195Z,13.49
2022-10-13T08:24:26.312Z,13.47
2022-10-13T08:26:53.122Z,13.56
2022-10-13T08:29:22.359Z,13.69
2022-10-13T08:31:52.737Z,13.69
2022-10-13T08:34:20.252Z,13.78
2022-10-13T08:36:47.271Z,13.82
2022-10-13T08:39:14.109Z,13.78
2022-10-13T08:41:43.958Z,13.91
2022-10-13T08:47:24.573Z,14.22
2022-10-13T08:49:52.149Z,14.33
2022-10-13T08:52:28.347Z,14.46
2022-10-13T08:54:56.366Z,14.44
2022-10-13T08:57:23.469Z,14.38
2022-10-13T08:59:51.374Z,14.40
2022-10-13T09:02:29.871Z,14.39
2022-10-13T09:04:58.802Z,14.49
2022-10-13T09:07:29.853Z,14.61
2022-10-13T09:09:56.554Z,13.98
2022-10-13T09:12:25.226Z,13.82
2022-10-13T09:15:05.699Z,13.98
2022-10-13T09:17:34.141Z,13.99
2022-10-13T09:20:16.529Z,14.05
2022-10-13T09:22:43.897Z,14.21
2022-10-13T09:25:22.186Z,14.03
2022-10-13T09:28:00.554Z,14.03
2022-10-13T09:30:34.649Z,13.80
2022-10-13T09:33:09.371Z,13.51
2022-10-13T09:35:36.958Z,13.58
2022-10-13T09:38:04.503Z,13.62
2022-10-13T09:40:32.336Z,13.80
2022-10-13T09:43:01.782Z,14.02
2022-10-13T09:45:30.948Z,14.20
2022-10-13T09:48:05.643Z,14.03
2022-10-13T09:50:35.513Z,14.33
2022-10-13T09:53:26.386Z,14.44
2022-10-13T09:56:23.474Z,14.52
2022-10-13T09:59:06.193Z,14.27
2022-10-13T10:01:38.674Z,14.33
2022-10-13T10:04:10.959Z,14.45
2022-10-13T10:06:40.365Z,14.47
2022-10-13T10:09:34.896Z,14.43
2022-10-13T10:12:04.050Z,14.68
2022-10-13T10:14:37.710Z,14.82
2022-10-13T10:17:35.257Z,14.68
2022-10-13T10:20:17.127Z,14.94
2022-10-13T10:23:14.122Z,15.14
2022-10-13T10:25:46.693Z,15.28
2022-10-13T10:28:56.990Z,15.48
2022-10-13T10:31:50.471Z,15.63
2022-10-13T10:34:54.485Z,15.63
2022-10-13T10:37:33.257Z,15.73
2022-10-13T10:40:08.835Z,15.70
2022-10-13T10:42:53.706Z,15.75
2022-10-13T10:45:27.403Z,15.79
2022-10-13T10:47:59.598Z,15.84
2022-10-13T10:50:28.605Z,15.86
2022-10-13T10:53:33.028Z,15.88
2022-10-13T10:56:30.687Z,15.85
2022-10-13T10:59:22.614Z,15.76
2022-10-13T11:02:03.759Z,15.63
2022-10-13T11:04:44.248Z,15.51
2022-10-13T11:07:24.290Z,15.51
2022-10-13T11:09:57.371Z,15.77
2022-10-13T11:12:25.961Z,15.85
2022-10-13T11:15:13.992Z,15.81
2022-10-13T11:17:41.914Z,15.81
2022-10-13T11:20:18.169Z,15.74
2022-10-13T11:23:00.162Z,15.86
2022-10-13T11:25:35.871Z,15.85
2022-10-13T11:28:42.658Z,15.88
2022-10-13T11:31:13.987Z,16.01
2022-10-13T11:33:40.652Z,16.16
2022-10-13T11:36:37.970Z,16.03
2022-10-13T11:42:14.777Z,16.20
2022-10-13T11:44:54.544Z,16.04
2022-10-13T11:47:48.968Z,16.23
2022-10-13T11:50:33.307Z,16.14
2022-10-13T11:53:18.746Z,16.18
2022-10-13T11:55:58.785Z,16.07
2022-10-13T11:58:32.932Z,16.00
2022-10-13T12:01:01.145Z,15.90
2022-10-13T12:03:33.895Z,15.48
2022-10-13T12:06:06.294Z,14.61
2022-10-13T12:08:35.294Z,14.83
2022-10-13T12:11:07.533Z,14.53
2022-10-13T12:13:36.177Z,14.11
2022-10-13T12:16:06.306Z,13.73
2022-10-13T12:18:39.069Z,13.76
2022-10-13T12:21:17.312Z,13.93
2022-10-13T12:23:44.091Z,14.08
2022-10-13T12:26:20.432Z,14.49
2022-10-13T12:28:51.906Z,14.07
2022-10-13T12:31:22.377Z,14.04
2022-10-13T12:34:00.451Z,14.42
2022-10-13T12:36:31.276Z,13.52
2022-10-13T12:39:07.670Z,13.51
2022-10-13T12:41:40.751Z,14.10
2022-10-13T12:44:15.051Z,13.80
2022-10-13T12:46:42.897Z,13.85
2022-10-13T12:51:49.379Z,13.81
2022-10-13T12:54:21.053Z,13.96
2022-10-13T12:56:53.779Z,14.13
2022-10-13T12:59:24.386Z,13.58
2022-10-13T13:02:20.038Z,13.41
2022-10-13T13:04:47.201Z,13.18
2022-10-13T13:07:31.748Z,13.37
2022-10-13T13:10:00.830Z,13.52
2022-10-13T13:12:29.214Z,13.15
2022-10-13T13:14:56.792Z,13.54
2022-10-13T13:17:57.290Z,13.71
2022-10-13T13:20:22.937Z,13.76
2022-10-13T13:22:50.744Z,13.83
2022-10-13T13:25:17.340Z,14.00
2022-10-13T13:27:43.843Z,14.07
2022-10-13T13:30:16.924Z,14.10
2022-10-13T13:32:43.570Z,13.99
2022-10-13T13:35:10.477Z,14.14
2022-10-13T13:37:44.465Z,13.75
2022-10-13T13:40:24.033Z,13.76
2022-10-13T13:42:50.851Z,13.74
2022-10-13T13:45:21.212Z,14.16
2022-10-13T13:47:49.784Z,14.26
2022-10-13T13:50:22.011Z,14.01
2022-10-13T13:52:56.241Z,14.09
2022-10-13T13:55:23.347Z,13.82
2022-10-13T13:57:49.922Z,13.60
2022-10-13T14:00:17.950Z,13.66
2022-10-13T14:02:49.538Z,13.14
2022-10-13T14:05:16.314Z,13.40
2022-10-13T14:07:42.970Z,13.81
2022-10-13T14:10:10.811Z,13.84
2022-10-13T14:12:37.742Z,13.68
2022-10-13T14:15:05.014Z,13.54
2022-10-13T14:17:31.629Z,13.84
2022-10-13T14:20:00.305Z,13.81
2022-10-13T14:22:27.084Z,14.05
2022-10-13T14:24:54.299Z,13.95
2022-10-13T14:27:21.126Z,14.02
2022-10-13T14:29:47.780Z,13.54
2022-10-13T14:32:15.496Z,13.66
2022-10-13T14:34:42.092Z,13.66
2022-10-13T14:37:08.642Z,13.44
2022-10-13T14:39:35.257Z,13.62
2022-10-13T14:42:01.901Z,13.67
2022-10-13T14:44:28.631Z,13.80
2022-10-13T14:46:55.316Z,13.78
2022-10-13T14:49:22.387Z,14.03
2022-10-13T14:51:51.270Z,14.14
2022-10-13T14:54:18.625Z,13.43
2022-10-13T14:56:45.359Z,13.05
2022-10-13T14:59:12.784Z,13.06
2022-10-13T15:01:41.736Z,13.36
2022-10-13T15:04:09.124Z,13.53
2022-10-13T15:06:40.290Z,13.69
2022-10-13T15:11:36.435Z,13.61
2022-10-13T15:14:03.238Z,13.43
2022-10-13T15:16:33.590Z,13.19
2022-10-13T15:19:00.442Z,13.49
2022-10-13T15:21:27.092Z,13.20
2022-10-13T15:23:53.786Z,13.36
2022-10-13T15:26:20.599Z,12.80
2022-10-13T15:28:51.108Z,13.21
2022-10-13T15:31:19.388Z,13.26
2022-10-13T15:33:49.320Z,12.99
2022-10-13T15:36:17.041Z,13.08
2022-10-13T15:38:45.654Z,13.02
2022-10-13T15:41:12.898Z,13.36
2022-10-13T15:43:39.578Z,13.51
2022-10-13T15:46:10.447Z,13.45
2022-10-13T15:48:37.383Z,13.57
2022-10-13T15:51:13.457Z,13.54
2022-10-13T15:53:40.090Z,13.47
2022-10-13T15:56:07.793Z,13.38
2022-10-13T15:58:35.898Z,13.53
2022-10-13T16:01:07.501Z,13.47
2022-10-13T16:03:34.328Z,13.47
2022-10-13T16:06:04.422Z,13.62
2022-10-13T16:08:31.528Z,13.57
2022-10-13T16:10:58.174Z,13.49
2022-10-13T16:13:24.817Z,13.48
2022-10-13T16:16:01.142Z,13.61
2022-10-13T16:18:32.522Z,13.54
2022-10-13T16:20:59.188Z,13.46
2022-10-13T16:23:26.253Z,13.46
2022-10-13T16:25:53.153Z,13.50
2022-10-13T16:28:19.952Z,13.57
2022-10-13T16:30:46.577Z,13.53
2022-10-13T16:33:13.167Z,13.56
2022-10-13T16:35:39.863Z,13.46
2022-10-13T16:38:06.465Z,13.44
2022-10-13T16:40:33.073Z,13.49
2022-10-13T16:42:59.698Z,13.38
2022-10-13T16:45:41.334Z,13.44
2022-10-13T16:48:13.122Z,13.37
2022-10-13T16:50:39.633Z,13.35
2022-10-13T16:53:06.199Z,13.27
2022-10-13T16:55:32.846Z,13.23
2022-10-13T16:57:59.460Z,13.31
2022-10-13T17:00:26.160Z,13.24
2022-10-13T17:02:53.104Z,13.34
2022-10-13T17:05:19.727Z,13.34
2022-10-13T17:07:46.350Z,13.12
2022-10-13T17:10:12.933Z,13.19
2022-10-13T17:12:39.554Z,13.30
2022-10-13T17:15:06.569Z,13.40
2022-10-13T17:17:33.222Z,13.34
2022-10-13T17:19:59.844Z,13.31
2022-10-13T17:22:26.474Z,13.30
2022-10-13T17:24:53.142Z,13.33
2022-10-13T17:27:20.096Z,13.38
2022-10-13T17:29:46.974Z,13.36
2022-10-13T17:32:13.613Z,13.20
2022-10-13T17:34:40.250Z,13.06
2022-10-13T17:37:07.330Z,12.96
2022-10-13T17:39:34.392Z,12.98
2022-10-13T17:42:01.034Z,13.09
2022-10-13T17:44:27.636Z,13.19
2022-10-13T17:46:54.195Z,13.22
2022-10-13T17:49:20.866Z,13.29
2022-10-13T17:51:51.702Z,13.28
2022-10-13T17:54:22.311Z,13.22
2022-10-13T17:56:49.444Z,13.30
2022-10-13T17:59:17.571Z,13.29
2022-10-13T18:01:45.101Z,13.30
2022-10-13T18:04:14.224Z,13.27
2022-10-13T18:06:43.720Z,13.13
2022-10-13T18:09:16.528Z,13.25
2022-10-13T18:11:49.821Z,13.17
2022-10-13T18:14:18.546Z,13.12
2022-10-13T18:16:45.446Z,12.98
2022-10-13T18:19:12.647Z,12.83
2022-10-13T18:21:39.300Z,12.84
2022-10-13T18:24:06.271Z,12.96
2022-10-13T18:26:35.775Z,12.74
2022-10-13T18:29:03.907Z,12.90
2022-10-13T18:31:32.801Z,12.90
2022-10-13T18:34:02.492Z,13.01
2022-10-13T18:36:36.629Z,12.40
2022-10-13T18:39:13.679Z,12.32
2022-10-13T18:41:45.957Z,12.47
2022-10-13T18:44:13.039Z,12.61
2022-10-13T18:46:40.370Z,12.60
2022-10-13T18:49:08.537Z,12.52
2022-10-13T18:51:39.016Z,12.50
2022-10-13T18:54:06.726Z,12.87
2022-10-13T18:56:34.777Z,13.08
2022-10-13T18:59:02.729Z,12.95
2022-10-13T19:01:31.932Z,13.03
2022-10-13T19:03:58.631Z,13.26
2022-10-13T19:06:27.665Z,13.40
2022-10-13T19:09:04.298Z,13.32
2022-10-13T19:11:35.387Z,13.07
2022-10-13T19:14:03.045Z,12.84
2022-10-13T19:16:31.345Z,13.01
2022-10-13T19:18:58.023Z,13.10
2022-10-13T19:21:25.060Z,12.92
2022-10-13T19:23:51.730Z,12.73
2022-10-13T19:26:28.418Z,12.43
2022-10-13T19:29:07.455Z,12.61
2022-10-13T19:31:35.664Z,12.59
2022-10-13T19:34:06.986Z,12.32
2022-10-13T19:36:37.737Z,12.45
2022-10-13T19:39:09.278Z,12.34
2022-10-13T19:41:38.218Z,12.61
2022-10-13T19:44:04.916Z,12.78
2022-10-13T19:46:38.539Z,12.54
2022-10-13T19:49:05.678Z,12.74
2022-10-13T19:51:33.504Z,12.57
2022-10-13T19:54:00.754Z,12.63
2022-10-13T19:56:33.912Z,12.72
2022-10-13T19:59:01.852Z,12.57
2022-10-13T20:01:28.575Z,12.94
2022-10-13T20:03:57.456Z,12.91
2022-10-13T20:06:24.079Z,12.93
2022-10-13T20:08:50.714Z,12.72
2022-10-13T20:11:24.127Z,12.84
2022-10-13T20:13:52.046Z,13.10
2022-10-13T20:16:21.416Z,13.09
2022-10-13T20:18:56.309Z,13.20
2022-10-13T20:21:24.078Z,13.32
2022-10-13T20:23:51.251Z,13.49
2022-10-13T20:26:18.855Z,13.45
2022-10-13T20:28:46.939Z,13.41
2022-10-13T20:31:15.945Z,13.54
2022-10-13T20:33:42.721Z,13.61
2022-10-13T20:36:12.467Z,13.59
2022-10-13T20:38:39.502Z,13.61
2022-10-13T20:41:24.857Z,13.59
2022-10-13T20:43:53.163Z,13.54
2022-10-13T20:46:21.598Z,13.54
2022-10-13T20:51:36.504Z,13.45
2022-10-13T20:54:03.093Z,13.52
2022-10-13T20:56:29.884Z,13.45
2022-10-13T20:58:56.700Z,13.48
2022-10-13T21:01:23.877Z,13.56
2022-10-13T21:03:54.459Z,13.62
2022-10-13T21:06:23.407Z,13.61
2022-10-13T21:08:50.821Z,13.61
2022-10-13T21:11:20.356Z,13.63
2022-10-13T21:13:48.075Z,13.72
2022-10-13T21:16:17.350Z,13.73
2022-10-13T21:18:49.058Z,13.62
2022-10-13T21:21:19.279Z,13.64
2022-10-13T21:23:57.786Z,13.62
2022-10-13T21:26:26.919Z,13.64
2022-10-13T21:28:53.680Z,13.65
2022-10-13T21:31:22.220Z,13.63
2022-10-13T21:33:49.712Z,13.64
2022-10-13T21:36:23.246Z,13.73
2022-10-13T21:38:55.869Z,13.77
2022-10-13T21:41:23.002Z,13.82
2022-10-13T21:43:50.473Z,13.85
2022-10-13T21:46:26.703Z,13.84
2022-10-13T21:48:55.262Z,13.82
2022-10-13T21:51:24.657Z,13.79
2022-10-13T21:53:56.862Z,13.77
2022-10-13T21:56:25.491Z,13.66
2022-10-13T21:58:52.376Z,13.63
2022-10-13T22:01:19.818Z,13.65
2022-10-13T22:03:48.008Z,13.60
2022-10-13T22:06:19.370Z,13.63
2022-10-13T22:08:48.781Z,13.64
2022-10-13T22:11:22.729Z,13.64
2022-10-13T22:13:49.628Z,13.61
2022-10-13T22:16:20.680Z,13.61
2022-10-13T22:18:48.400Z,13.58
2022-10-13T22:21:25.204Z,13.63
2022-10-13T22:23:52.049Z,13.67
2022-10-13T22:26:19.140Z,13.59
2022-10-13T22:28:51.320Z,13.63
2022-10-13T22:31:18.743Z,13.52
2022-10-13T22:33:46.472Z,13.47
2022-10-13T22:36:18.622Z,13.51
2022-10-13T22:38:46.845Z,13.50
2022-10-13T22:41:14.759Z,13.39
2022-10-13T22:43:46.626Z,13.51
2022-10-13T22:46:15.099Z,13.61
2022-10-13T22:48:41.931Z,13.50
2022-10-13T22:51:15.819Z,13.58
2022-10-13T22:53:42.637Z,13.43
2022-10-13T22:56:12.985Z,13.32
2022-10-13T22:58:39.677Z,13.31
2022-10-13T23:01:14.572Z,13.15
2022-10-13T23:03:42.395Z,12.94
2022-10-13T23:06:13.492Z,12.94
2022-10-13T23:08:41.598Z,13.08
2022-10-13T23:11:08.338Z,12.84
2022-10-13T23:13:35.341Z,13.00
2022-10-13T23:16:10.443Z,13.09
2022-10-13T23:18:42.648Z,13.00
2022-10-13T23:21:23.923Z,13.09
2022-10-13T23:24:04.691Z,13.01
2022-10-13T23:26:32.396Z,12.80
2022-10-13T23:28:59.729Z,13.03
2022-10-13T23:31:27.507Z,12.92
2022-10-13T23:33:54.371Z,12.89
2022-10-13T23:36:24.243Z,12.87
2022-10-13T23:39:03.602Z,12.87
2022-10-13T23:41:30.663Z,12.88
2022-10-13T23:43:57.591Z,12.85
2022-10-13T23:46:24.670Z,12.85
2022-10-13T23:48:51.603Z,12.67
2022-10-13T23:51:20.517Z,12.80
2022-10-13T23:53:47.373Z,12.93
2022-10-13T23:56:15.152Z,13.02
2022-10-13T23:58:43.789Z,13.03
